Time;durP1;ratioP1;P1;durP2;ratioP2;P2;SDS_P1;SDS_P2;PMS_P1;PMS_P2;Temp;Humidity;BMP_temperature;BMP_pressure;BME280_temperature;BME280_humidity;BME280_pressure;Samples;Min_cycle;Max_cycle;Signal;HPM_P1;HPM_P2
2024/04/03 00:01:49;;;;;;;12.02;4.80;;;;;;;8.65;100.00;69355.28;5089996;28;20105;-49
2024/04/03 00:04:15;;;;;;;13.20;4.80;;;;;;;8.67;100.00;69357.03;5091773;28;20085;-49
2024/04/03 00:06:42;;;;;;;14.13;4.80;;;;;;;8.68;100.00;69355.59;5093303;28;20050;-48
2024/04/03 00:09:09;;;;;;;14.23;5.07;;;;;;;8.68;100.00;69356.19;5093225;28;20044;-47
2024/04/03 00:11:36;;;;;;;16.27;5.47;;;;;;;8.67;100.00;69354.44;5092812;28;20042;-47
2024/04/03 00:14:03;;;;;;;15.32;5.43;;;;;;;8.66;100.00;69359.06;5089973;28;20043;-47
2024/04/03 00:16:30;;;;;;;14.20;5.43;;;;;;;8.71;100.00;69359.09;5090275;28;20457;-46
2024/04/03 00:18:57;;;;;;;14.40;5.10;;;;;;;8.71;100.00;69356.50;5089735;28;20044;-50
2024/04/03 00:21:24;;;;;;;15.23;5.80;;;;;;;8.72;100.00;69360.28;5092670;28;20048;-47
2024/04/03 00:23:52;;;;;;;14.32;5.68;;;;;;;8.73;100.00;69361.44;5092638;28;20082;-49
2024/04/03 00:26:20;;;;;;;14.98;5.85;;;;;;;8.74;100.00;69365.19;5089807;28;20032;-48
2024/04/03 00:28:46;;;;;;;16.70;6.00;;;;;;;8.73;100.00;69361.44;5090008;28;20055;-49
2024/04/03 00:31:14;;;;;;;19.52;6.68;;;;;;;8.72;100.00;69360.84;5089481;28;20063;-49
2024/04/03 00:33:41;;;;;;;14.00;6.40;;;;;;;8.78;100.00;69372.44;5091665;28;20119;-47
2024/04/03 00:36:08;;;;;;;13.30;6.10;;;;;;;8.76;100.00;69365.50;5092705;28;20052;-46
2024/04/03 00:38:35;;;;;;;12.25;5.85;;;;;;;8.75;100.00;69369.56;5092737;28;20043;-47
2024/04/03 00:41:02;;;;;;;13.15;6.60;;;;;;;8.75;100.00;69366.97;5092696;28;20040;-47
2024/04/03 00:43:29;;;;;;;15.52;7.18;;;;;;;8.77;100.00;69366.69;5091403;28;20115;-47
2024/04/03 00:45:59;;;;;;;12.13;6.95;;;;;;;8.78;100.00;69367.25;5089454;28;20407;-47
2024/04/03 00:48:29;;;;;;;12.40;7.15;;;;;;;8.78;100.00;69367.25;5092374;28;20636;-47
2024/04/03 00:50:58;;;;;;;13.35;6.95;;;;;;;8.80;100.00;69372.19;5089215;28;20043;-48
2024/04/03 00:53:24;;;;;;;15.43;6.80;;;;;;;8.81;100.00;69375.97;5089423;28;20158;-47
2024/04/03 00:55:52;;;;;;;14.18;6.22;;;;;;;8.84;100.00;69376.28;5092412;28;20085;-46
2024/04/03 00:58:18;;;;;;;12.20;6.43;;;;;;;8.84;100.00;69373.69;5090635;28;20056;-49
2024/04/03 01:00:45;;;;;;;13.52;6.88;;;;;;;8.86;100.00;69379.19;5089159;28;20433;-50
2024/04/03 01:03:11;;;;;;;13.27;7.03;;;;;;;8.86;100.00;69379.19;5091927;28;20062;-50
2024/04/03 01:05:40;;;;;;;16.17;6.70;;;;;;;8.86;100.00;69379.19;5109322;28;20137;-49
2024/04/03 01:08:06;;;;;;;15.40;7.15;;;;;;;8.89;100.00;69379.50;5090791;28;20053;-51
2024/04/03 01:10:34;;;;;;;12.93;7.45;;;;;;;8.89;100.00;69385.28;5089339;28;20044;-50
2024/04/03 01:13:01;;;;;;;11.70;7.25;;;;;;;8.93;100.00;69384.75;5071689;28;20109;-50
2024/04/03 01:15:29;;;;;;;14.65;7.03;;;;;;;8.92;100.00;69383.00;5088998;28;20044;-52
2024/04/03 01:17:55;;;;;;;13.02;7.28;;;;;;;8.88;100.00;69378.91;5088625;28;20055;-49
2024/04/03 01:20:23;;;;;;;13.38;7.00;;;;;;;8.88;100.00;69378.34;5089068;28;20044;-52
2024/04/03 01:22:51;;;;;;;12.43;6.95;;;;;;;8.89;100.00;69380.09;5088046;28;20051;-52
2024/04/03 01:25:19;;;;;;;13.20;6.80;;;;;;;8.87;100.00;69380.34;5088180;28;20085;-51
2024/04/03 01:27:46;;;;;;;12.43;5.95;;;;;;;8.92;100.00;69380.41;5090832;28;20426;-53
2024/04/03 01:30:13;;;;;;;10.02;5.55;;;;;;;8.91;100.00;69379.22;5091553;28;20040;-51
2024/04/03 01:32:42;;;;;;;9.07;4.65;;;;;;;8.93;100.00;69384.16;5091660;28;20044;-51
2024/04/03 01:35:09;;;;;;;8.30;3.90;;;;;;;8.89;100.00;69376.88;5090505;28;20880;-53
2024/04/03 01:37:35;;;;;;;8.10;3.65;;;;;;;8.89;100.00;69380.09;5087678;28;20506;-51
2024/04/03 01:40:03;;;;;;;6.88;3.50;;;;;;;8.87;100.00;69377.75;5089943;28;20040;-51
2024/04/03 01:42:30;;;;;;;6.88;3.50;;;;;;;8.87;100.00;69377.16;5091291;28;20054;-52
2024/04/03 01:44:57;;;;;;;6.85;3.35;;;;;;;8.86;100.00;69376.59;5088135;28;20052;-50
2024/04/03 01:47:24;;;;;;;8.32;3.20;;;;;;;8.87;100.00;69380.34;5088813;28;20040;-52
2024/04/03 01:49:55;;;;;;;7.25;3.25;;;;;;;8.86;100.00;69373.41;5073607;28;20055;-50
2024/04/03 01:52:21;;;;;;;5.93;3.60;;;;;;;8.86;100.00;69378.59;5087536;28;20771;-52
2024/04/03 01:54:49;;;;;;;8.75;3.58;;;;;;;8.86;100.00;69381.81;5089845;28;20402;-52
2024/04/03 01:57:15;;;;;;;6.70;3.53;;;;;;;8.90;100.00;69380.66;5091013;28;20442;-52
2024/04/03 01:59:43;;;;;;;8.77;4.20;;;;;;;8.86;100.00;69379.19;5091267;28;20048;-52
2024/04/03 02:02:10;;;;;;;8.82;4.43;;;;;;;8.88;100.00;69375.75;5090063;28;20050;-52
2024/04/03 02:04:37;;;;;;;11.82;5.35;;;;;;;8.87;100.00;69377.16;5071663;28;20036;-51
2024/04/03 02:07:03;;;;;;;9.70;5.40;;;;;;;8.88;100.00;69376.31;5089021;28;20040;-53
2024/04/03 02:09:30;;;;;;;9.45;5.30;;;;;;;8.87;100.00;69377.16;5088598;28;20043;-52
2024/04/03 02:11:56;;;;;;;10.75;6.07;;;;;;;8.87;100.00;69380.34;5087615;28;20035;-48
2024/04/03 02:14:23;;;;;;;10.57;5.88;;;;;;;8.87;100.00;69374.56;5088499;28;20044;-50
2024/04/03 02:16:51;;;;;;;9.63;5.68;;;;;;;8.88;100.00;69378.34;5087793;28;20407;-50
2024/04/03 02:19:18;;;;;;;10.88;5.88;;;;;;;8.88;100.00;69384.13;5087959;28;20043;-50
2024/04/03 02:21:44;;;;;;;10.13;4.82;;;;;;;8.89;100.00;69385.28;5087137;28;20040;-50
2024/04/03 02:24:11;;;;;;;8.40;3.97;;;;;;;8.89;100.00;69385.28;5089499;28;20044;-48
2024/04/03 02:26:37;;;;;;;6.82;3.70;;;;;;;8.92;100.00;69386.19;5090199;28;20356;-50
2024/04/03 02:29:04;;;;;;;8.23;3.60;;;;;;;8.92;100.00;69383.00;5090024;28;20044;-52
2024/04/03 02:31:30;;;;;;;9.60;3.95;;;;;;;8.89;100.00;69380.09;5088152;28;20036;-51
2024/04/03 02:33:59;;;;;;;7.88;3.42;;;;;;;8.92;100.00;69378.38;5088276;28;20098;-51
2024/04/03 02:36:25;;;;;;;7.97;3.85;;;;;;;8.89;100.00;69385.28;5090346;28;20079;-52
2024/04/03 02:38:52;;;;;;;6.70;3.42;;;;;;;8.93;100.00;69389.34;5087716;28;20079;-49
2024/04/03 02:41:18;;;;;;;9.80;4.07;;;;;;;8.89;100.00;69380.09;5087332;28;20054;-50
2024/04/03 02:43:45;;;;;;;9.75;4.10;;;;;;;8.87;100.00;69380.34;5087937;28;20143;-53
2024/04/03 02:46:11;;;;;;;7.97;4.07;;;;;;;8.89;100.00;69377.47;5089139;28;20047;-51
2024/04/03 02:48:38;;;;;;;8.57;4.20;;;;;;;8.91;100.00;69384.44;5070878;28;20052;-51
2024/04/03 02:51:09;;;;;;;8.07;4.10;;;;;;;8.87;100.00;69380.34;5089219;28;20580;-52
2024/04/03 02:53:37;;;;;;;8.60;4.50;;;;;;;8.85;100.00;69380.63;5086918;28;20036;-51
2024/04/03 02:56:05;;;;;;;8.82;4.25;;;;;;;8.86;100.00;69378.59;5086918;28;20392;-50
2024/04/03 02:58:32;;;;;;;10.85;4.50;;;;;;;8.87;100.00;69377.75;5073564;28;20060;-51
2024/04/03 03:01:00;;;;;;;9.15;4.13;;;;;;;8.89;100.00;69384.69;5090368;28;20073;-51
2024/04/03 03:03:29;;;;;;;9.90;4.18;;;;;;;8.91;100.00;69381.84;5071566;28;20112;-51
2024/04/03 03:05:57;;;;;;;8.90;4.55;;;;;;;8.89;100.00;69380.09;5103600;28;20499;-52
2024/04/03 03:08:25;;;;;;;8.35;4.15;;;;;;;8.87;100.00;69377.75;5089407;28;20044;-52
2024/04/03 03:10:52;;;;;;;10.32;4.10;;;;;;;8.86;100.00;69378.59;5089648;28;20032;-52
2024/04/03 03:13:19;;;;;;;9.52;4.05;;;;;;;8.85;100.00;69380.03;5087312;28;20051;-52
2024/04/03 03:15:52;;;;;;;8.80;3.50;;;;;;;8.85;100.00;69378.03;5089127;28;20858;-52
2024/04/03 03:18:20;;;;;;;7.40;3.67;;;;;;;8.85;100.00;69380.63;5087849;28;20052;-53
2024/04/03 03:20:48;;;;;;;8.07;4.03;;;;;;;8.84;100.00;69374.25;5070217;28;20059;-50
2024/04/03 03:23:15;;;;;;;11.02;4.18;;;;;;;8.82;100.00;69374.53;5086318;28;20135;-47
2024/04/03 03:25:45;;;;;;;11.13;4.88;;;;;;;8.80;100.00;69369.59;5090074;28;20550;-47
2024/04/03 03:28:11;;;;;;;8.70;4.60;;;;;;;8.77;100.00;69371.31;5090023;28;20059;-48
2024/04/03 03:30:38;;;;;;;10.43;4.68;;;;;;;8.78;100.00;69364.66;5088707;28;20052;-47
2024/04/03 03:33:08;;;;;;;10.20;5.07;;;;;;;8.74;100.00;69367.78;5086876;28;20100;-47
2024/04/03 03:35:35;;;;;;;10.48;5.22;;;;;;;8.74;100.00;69363.19;5089426;28;20081;-49
2024/04/03 03:38:02;;;;;;;9.75;4.93;;;;;;;8.72;100.00;69357.66;5087366;28;20513;-46
2024/04/03 03:40:29;;;;;;;9.93;5.22;;;;;;;8.73;100.00;69364.63;5090966;28;20051;-46
2024/04/03 03:42:57;;;;;;;11.50;4.85;;;;;;;8.76;100.00;69364.94;5090869;28;20078;-47
2024/04/03 03:45:24;;;;;;;8.07;4.50;;;;;;;8.73;100.00;69364.03;5093000;28;20032;-48
2024/04/03 03:47:51;;;;;;;10.75;4.75;;;;;;;8.71;100.00;69362.28;5093822;28;20158;-46
2024/04/03 03:53:05;;;;;;;9.80;5.10;;;;;;;8.73;100.00;69361.44;5089202;28;20032;-46
2024/04/03 03:55:32;;;;;;;11.73;5.20;;;;;;;8.68;100.00;69361.38;5091927;28;20043;-48
2024/04/03 03:58:01;;;;;;;9.18;5.00;;;;;;;8.71;100.00;69359.09;5093433;28;20059;-46
2024/04/03 04:00:28;;;;;;;8.85;4.80;;;;;;;8.70;100.00;69357.94;5093348;28;20044;-49
2024/04/03 04:02:55;;;;;;;10.80;4.40;;;;;;;8.70;100.00;69361.13;5092597;28;20138;-47
2024/04/03 04:05:22;;;;;;;9.40;4.60;;;;;;;8.72;100.00;69360.84;5090483;28;20059;-50
2024/04/03 04:07:48;;;;;;;13.75;5.22;;;;;;;8.71;100.00;69362.28;5091355;28;20048;-46
2024/04/03 04:10:15;;;;;;;12.43;5.85;;;;;;;8.71;100.00;69362.28;5093466;28;20410;-47
2024/04/03 04:12:42;;;;;;;13.45;5.95;;;;;;;8.76;100.00;69364.94;5093000;28;20050;-48
2024/04/03 04:15:11;;;;;;;11.45;5.22;;;;;;;8.77;100.00;69366.09;5092433;28;20040;-48
2024/04/03 04:17:37;;;;;;;14.18;5.70;;;;;;;8.74;100.00;69362.59;5092929;28;20070;-49
2024/04/03 04:20:07;;;;;;;11.65;5.30;;;;;;;8.72;100.00;69360.84;5093147;28;20409;-47
2024/04/03 04:22:33;;;;;;;11.73;6.00;;;;;;;8.76;100.00;69364.94;5092985;28;20036;-47
2024/04/03 04:25:02;;;;;;;13.32;6.30;;;;;;;8.74;100.00;69365.78;5092982;28;20040;-48
2024/04/03 04:27:28;;;;;;;13.70;6.57;;;;;;;8.73;100.00;69361.44;5092939;28;20048;-49
2024/04/03 04:29:55;;;;;;;12.93;6.60;;;;;;;8.71;100.00;69357.09;5089517;28;20040;-50
2024/04/03 04:32:23;;;;;;;13.32;6.18;;;;;;;8.70;100.00;69357.94;5090759;28;20085;-49
2024/04/03 04:34:52;;;;;;;12.75;6.45;;;;;;;8.67;100.00;69354.44;5092772;28;20036;-48
2024/04/03 04:37:18;;;;;;;11.50;5.95;;;;;;;8.70;100.00;69363.72;5075815;28;20059;-50
2024/04/03 04:39:46;;;;;;;11.18;5.90;;;;;;;8.71;100.00;69353.91;5089745;28;20501;-50
2024/04/03 04:42:12;;;;;;;9.82;4.68;;;;;;;8.71;100.00;69359.09;5089791;28;20048;-46
2024/04/03 04:44:39;;;;;;;10.38;4.85;;;;;;;8.72;100.00;69360.84;5092692;28;20036;-47
2024/04/03 04:47:05;;;;;;;13.45;4.78;;;;;;;8.70;100.00;69357.94;5092564;28;20036;-49
2024/04/03 04:49:33;;;;;;;9.07;4.40;;;;;;;8.71;100.00;69361.69;5092048;28;20051;-51
2024/04/03 04:51:59;;;;;;;8.43;3.65;;;;;;;8.72;100.00;69363.44;5092837;28;20032;-49
2024/04/03 04:54:27;;;;;;;9.20;4.13;;;;;;;8.82;100.00;69371.94;5092277;28;20044;-50
2024/04/03 04:56:53;;;;;;;10.00;4.07;;;;;;;8.72;100.00;69360.84;5092467;28;20632;-49
2024/04/03 04:59:20;;;;;;;9.98;4.05;;;;;;;8.70;100.00;69358.53;5092249;28;20044;-51
2024/04/03 05:01:46;;;;;;;9.95;4.50;;;;;;;8.68;100.00;69358.22;5092345;28;20075;-50
2024/04/03 05:04:14;;;;;;;12.68;3.97;;;;;;;8.71;100.00;69357.09;5092292;28;20051;-51
2024/04/03 05:06:41;;;;;;;11.20;4.05;;;;;;;8.68;100.00;69358.22;5092260;28;20513;-51
2024/04/03 05:09:08;;;;;;;8.70;4.22;;;;;;;8.69;100.00;69356.78;5091795;28;20040;-48
2024/04/03 05:11:35;;;;;;;11.55;4.35;;;;;;;8.68;100.00;69353.59;5091927;28;20040;-46
2024/04/03 05:14:02;;;;;;;10.63;4.15;;;;;;;8.68;100.00;69363.41;5091763;28;20044;-48
2024/04/03 05:16:29;;;;;;;10.88;5.38;;;;;;;8.71;100.00;69359.09;5092181;28;20596;-46
2024/04/03 05:18:56;;;;;;;14.10;5.07;;;;;;;8.71;100.00;69361.69;5091871;28;20048;-47
2024/04/03 05:21:22;;;;;;;11.85;4.57;;;;;;;8.66;100.00;69359.06;5091808;28;20043;-48
2024/04/03 05:23:51;;;;;;;10.73;5.22;;;;;;;8.68;100.00;69358.22;5091433;28;20459;-48
2024/04/03 05:26:17;;;;;;;9.80;4.45;;;;;;;8.67;100.00;69354.44;5088460;28;20510;-48
2024/04/03 05:28:44;;;;;;;11.27;4.03;;;;;;;8.78;100.00;69367.84;5106051;28;20051;-47
2024/04/03 05:31:14;;;;;;;9.07;3.92;;;;;;;8.77;100.00;69366.09;5088659;28;20044;-47
2024/04/03 05:33:42;;;;;;;9.93;3.83;;;;;;;8.76;100.00;69368.09;5088400;28;20054;-48
2024/04/03 05:36:09;;;;;;;11.95;4.10;;;;;;;8.73;100.00;69366.66;5090782;28;20036;-47
2024/04/03 05:38:37;;;;;;;10.15;3.90;;;;;;;8.69;100.00;69357.34;5091631;28;20043;-47
2024/04/03 05:41:05;;;;;;;9.90;3.97;;;;;;;8.71;100.00;69364.91;5074502;28;20040;-47
2024/04/03 05:43:32;;;;;;;12.65;3.78;;;;;;;8.71;100.00;69361.69;5090147;28;20347;-47
2024/04/03 05:45:58;;;;;;;10.68;3.70;;;;;;;8.70;100.00;69358.53;5088026;28;20046;-47
2024/04/03 05:48:27;;;;;;;10.68;3.78;;;;;;;8.71;100.00;69361.69;5073445;28;20036;-48
2024/04/03 05:51:04;;;;;;;6.30;3.50;;;;;;;8.73;100.00;69359.41;5091212;28;20132;-46
2024/04/03 05:53:32;;;;;;;8.25;3.72;;;;;;;8.76;100.00;69370.72;5087554;28;20135;-50
2024/04/03 05:55:59;;;;;;;9.27;3.45;;;;;;;8.80;100.00;69372.78;5088699;28;20498;-49
2024/04/03 05:58:28;;;;;;;12.25;3.67;;;;;;;8.81;100.00;69375.97;5091338;28;20047;-49
2024/04/03 06:00:55;;;;;;;10.60;3.72;;;;;;;8.76;100.00;69367.53;5090433;28;20048;-48
2024/04/03 06:03:25;;;;;;;12.23;4.18;;;;;;;8.76;100.00;69362.31;5091064;28;20131;-49
2024/04/03 06:05:52;;;;;;;8.38;3.22;;;;;;;8.74;100.00;69365.19;5090308;28;20097;-48
2024/04/03 06:08:20;;;;;;;9.88;3.80;;;;;;;8.75;100.00;69366.34;5086897;28;20052;-47
2024/04/03 06:10:46;;;;;;;10.10;4.20;;;;;;;8.79;100.00;69374.22;5089393;28;20048;-48
2024/04/03 06:13:13;;;;;;;11.95;3.78;;;;;;;8.78;100.00;69364.66;5090992;28;20050;-47
2024/04/03 06:15:41;;;;;;;10.07;4.10;;;;;;;8.78;100.00;69370.44;5090907;28;20036;-48
2024/04/03 06:18:08;;;;;;;11.20;4.63;;;;;;;8.82;100.00;69371.94;5090988;28;20150;-48
2024/04/03 06:20:34;;;;;;;11.30;4.60;;;;;;;8.82;100.00;69371.34;5091015;28;20040;-48
2024/04/03 06:23:02;;;;;;;11.93;4.88;;;;;;;8.84;100.00;69376.28;5090728;28;20044;-47
2024/04/03 06:25:28;;;;;;;12.63;4.38;;;;;;;8.93;100.00;69378.94;5090909;28;20585;-50
2024/04/03 06:27:55;;;;;;;10.63;3.90;;;;;;;8.95;100.00;69389.66;5088499;28;20040;-47
2024/04/03 06:30:23;;;;;;;11.68;4.35;;;;;;;8.92;100.00;69386.19;5087641;28;20043;-49
2024/04/03 06:32:50;;;;;;;10.70;4.55;;;;;;;8.92;100.00;69380.41;5070456;28;20060;-48
2024/04/03 06:35:18;;;;;;;15.60;4.50;;;;;;;8.93;100.00;69384.75;5087706;28;20115;-47
2024/04/03 06:37:44;;;;;;;13.85;4.10;;;;;;;8.95;100.00;69386.50;5073806;28;20060;-47
2024/04/03 06:40:13;;;;;;;11.85;4.15;;;;;;;8.98;100.00;69392.59;5090720;28;20615;-51
2024/04/03 06:42:42;;;;;;;10.13;4.22;;;;;;;8.97;100.00;69391.41;5107518;28;20050;-48
2024/04/03 06:45:08;;;;;;;11.80;4.28;;;;;;;9.02;100.00;69394.66;5090349;28;20499;-55
2024/04/03 06:47:35;;;;;;;13.40;4.55;;;;;;;9.07;100.00;69399.91;5087658;28;20089;-53
2024/04/03 06:50:06;;;;;;;9.45;3.95;;;;;;;9.05;100.00;69403.38;5086972;28;20059;-54
2024/04/03 06:52:33;;;;;;;11.00;4.30;;;;;;;9.08;100.00;69399.03;5069713;28;20137;-54
2024/04/03 06:54:59;;;;;;;9.63;4.50;;;;;;;9.09;100.00;69402.22;5086162;28;20193;-54
2024/04/03 06:57:27;;;;;;;9.30;3.70;;;;;;;9.14;100.00;69408.06;5070744;28;20048;-52
2024/04/03 06:59:53;;;;;;;13.27;3.90;;;;;;;9.21;100.00;69413.59;5087097;28;20044;-52
2024/04/03 07:02:20;;;;;;;10.10;3.78;;;;;;;9.22;100.00;69414.22;5087338;28;20060;-53
2024/04/03 07:04:46;;;;;;;10.05;3.28;;;;;;;9.24;100.00;69416.53;5088267;28;20036;-51
2024/04/03 07:07:14;;;;;;;10.23;3.28;;;;;;;9.24;100.00;69419.72;5090501;28;20036;-53
2024/04/03 07:09:43;;;;;;;9.57;3.63;;;;;;;9.29;100.00;69424.97;5090545;28;20129;-53
2024/04/03 07:12:10;;;;;;;11.13;3.65;;;;;;;9.34;100.00;69430.81;5074041;28;20052;-53
2024/04/03 07:14:36;;;;;;;7.90;3.13;;;;;;;9.33;100.00;69429.06;5094730;28;20059;-51
2024/04/03 07:17:03;;;;;;;9.98;3.13;;;;;;;9.32;100.00;69427.88;5094332;28;20047;-52
2024/04/03 07:19:30;;;;;;;11.32;3.10;;;;;;;9.35;100.00;69433.97;5094362;28;20518;-51
2024/04/03 07:21:57;;;;;;;11.38;3.10;;;;;;;9.39;100.00;69436.03;5092349;28;20047;-52
2024/04/03 07:24:24;;;;;;;10.85;2.60;;;;;;;9.41;100.00;69436.34;5090194;28;20047;-52
2024/04/03 07:26:51;;;;;;;11.40;3.58;;;;;;;9.47;100.00;69447.97;5093090;28;20052;-54
2024/04/03 07:29:19;;;;;;;8.95;3.30;;;;;;;9.46;100.00;69444.78;5091732;28;20059;-53
2024/04/03 07:31:46;;;;;;;11.77;4.35;;;;;;;9.50;100.00;69445.69;5108236;28;20812;-53
2024/04/03 07:34:12;;;;;;;10.63;4.65;;;;;;;9.48;100.00;69447.09;5091216;28;20040;-53
2024/04/03 07:36:41;;;;;;;9.23;4.03;;;;;;;9.52;100.00;69453.22;5090824;28;20054;-54
2024/04/03 07:39:09;;;;;;;10.77;3.63;;;;;;;9.54;100.00;69458.72;5090237;28;20056;-50
2024/04/03 07:41:39;;;;;;;8.68;3.15;;;;;;;9.55;100.00;69448.91;5093786;28;20044;-52
2024/04/03 07:44:06;;;;;;;7.70;2.80;;;;;;;9.50;100.00;69450.88;5093930;28;20549;-52
2024/04/03 07:46:33;;;;;;;9.27;2.85;;;;;;;9.48;100.00;69447.09;5093893;28;20059;-54
2024/04/03 07:49:01;;;;;;;10.98;2.92;;;;;;;9.53;100.00;69452.38;5091611;28;20065;-53
2024/04/03 07:51:28;;;;;;;10.93;2.85;;;;;;;9.57;100.00;69457.03;5090416;28;20501;-54
2024/04/03 07:53:54;;;;;;;9.70;3.00;;;;;;;9.53;100.00;69449.16;5092846;28;20089;-53
2024/04/03 07:56:22;;;;;;;9.43;3.00;;;;;;;9.51;100.00;69447.41;5090391;28;20063;-50
2024/04/03 07:58:49;;;;;;;10.32;3.03;;;;;;;9.51;100.00;69457.84;5091073;28;20411;-54
2024/04/03 08:01:17;;;;;;;8.45;2.95;;;;;;;9.47;100.00;69447.97;5090517;28;20048;-52
2024/04/03 08:03:43;;;;;;;9.48;3.33;;;;;;;9.47;100.00;69450.56;5091955;28;20105;-52
2024/04/03 08:06:10;;;;;;;10.10;3.45;;;;;;;9.52;100.00;69455.84;5093529;28;20052;-54
2024/04/03 08:08:36;;;;;;;9.68;3.40;;;;;;;9.56;100.00;69457.91;5090050;28;20210;-51
2024/04/03 08:11:04;;;;;;;8.82;3.15;;;;;;;9.59;100.00;69461.97;5090003;28;20040;-52
2024/04/03 08:13:30;;;;;;;11.15;3.50;;;;;;;9.64;100.00;69465.19;5092070;28;20040;-54
2024/04/03 08:16:03;;;;;;;12.13;3.92;;;;;;;9.68;100.00;69471.28;5093156;28;20519;-52
2024/04/03 08:18:29;;;;;;;9.40;3.30;;;;;;;9.69;100.00;69467.25;5090875;28;20040;-52
2024/04/03 08:21:02;;;;;;;11.30;3.60;;;;;;;9.73;100.00;69472.50;5089175;28;20089;-50
2024/04/03 08:23:29;;;;;;;10.25;3.05;;;;;;;9.75;100.00;69474.25;5109215;28;20490;-53
2024/04/03 08:25:57;;;;;;;9.85;3.80;;;;;;;9.81;100.00;69484.44;5092301;28;20044;-51
2024/04/03 08:28:23;;;;;;;10.88;3.65;;;;;;;9.80;100.00;69480.06;5075966;28;20448;-51
2024/04/03 08:30:50;;;;;;;9.52;3.50;;;;;;;9.79;100.00;69482.09;5093325;28;20044;-54
2024/04/03 08:33:18;;;;;;;11.32;3.53;;;;;;;9.84;100.00;69489.38;5090111;28;20054;-54
2024/04/03 08:35:45;;;;;;;12.15;3.20;;;;;;;9.80;100.00;69485.88;5089527;28;20105;-54
2024/04/03 08:38:11;;;;;;;10.95;3.13;;;;;;;9.81;100.00;69483.84;5090076;28;20043;-54
2024/04/03 08:40:39;;;;;;;8.70;3.13;;;;;;;9.79;100.00;69481.53;5092627;28;20051;-52
2024/04/03 08:43:09;;;;;;;12.68;3.85;;;;;;;9.78;100.00;69483.53;5090805;28;20063;-53
2024/04/03 08:45:40;;;;;;;11.32;3.53;;;;;;;9.76;100.00;69478.00;5089935;28;20032;-53
2024/04/03 08:48:08;;;;;;;10.75;3.60;;;;;;;9.78;100.00;69480.34;5089878;28;20085;-52
2024/04/03 08:50:37;;;;;;;9.07;3.42;;;;;;;9.79;100.00;69478.94;5090523;28;20048;-53
2024/04/03 08:53:03;;;;;;;8.63;3.30;;;;;;;9.78;100.00;69480.34;5091167;28;20047;-53
2024/04/03 08:55:31;;;;;;;10.68;3.38;;;;;;;9.77;100.00;69479.75;5106316;28;20372;-51
2024/04/03 08:57:57;;;;;;;10.35;3.47;;;;;;;9.76;100.00;69478.00;5091284;28;20044;-53
2024/04/03 09:00:25;;;;;;;10.23;3.25;;;;;;;9.81;100.00;69489.06;5092778;28;20052;-52
2024/04/03 09:02:57;;;;;;;7.38;3.22;;;;;;;9.88;100.00;69491.44;5092050;28;20369;-54
2024/04/03 09:05:24;;;;;;;9.55;3.03;;;;;;;9.84;100.00;69486.78;5089221;28;20036;-51
2024/04/03 09:08:00;;;;;;;9.50;2.90;;;;;;;9.90;100.00;69491.16;5073369;28;20094;-53
2024/04/03 09:10:31;;;;;;;6.25;3.08;;;;;;;9.90;100.00;69494.34;5092224;28;20075;-52
2024/04/03 09:13:03;;;;;;;8.30;2.63;;;;;;;9.88;100.00;69483.63;5092203;28;20040;-52
2024/04/03 09:15:30;;;;;;;8.45;3.08;;;;;;;9.89;100.00;69495.22;5092260;28;20470;-52
2024/04/03 09:18:01;;;;;;;9.43;2.92;;;;;;;9.90;100.00;69493.78;5090916;28;20394;-53
2024/04/03 09:20:28;;;;;;;9.27;3.10;;;;;;;9.80;100.00;69482.69;5088991;28;20047;-53
2024/04/03 09:22:55;;;;;;;7.78;3.17;;;;;;;9.78;100.00;69477.75;5090326;28;20048;-51
2024/04/03 09:25:26;;;;;;;8.02;3.38;;;;;;;9.77;100.00;69476.59;5072315;28;20519;-53
2024/04/03 09:28:00;;;;;;;7.38;2.53;;;;;;;9.78;100.00;69480.34;5089303;28;20050;-52
2024/04/03 09:30:28;;;;;;;7.65;2.78;;;;;;;9.77;100.00;69479.19;5091758;28;20051;-53
2024/04/03 09:32:58;;;;;;;5.72;2.80;;;;;;;9.82;100.00;69487.63;5091855;28;20047;-53
2024/04/03 09:35:28;;;;;;;7.88;2.78;;;;;;;9.82;100.00;69485.59;5089334;28;20044;-52
2024/04/03 09:37:55;;;;;;;8.50;3.38;;;;;;;9.85;100.00;69488.53;5087882;28;20713;-53
2024/04/03 09:40:26;;;;;;;8.15;2.90;;;;;;;9.90;100.00;69493.78;5088035;28;20407;-53
2024/04/03 09:42:57;;;;;;;6.15;2.85;;;;;;;9.97;100.00;69502.50;5089389;28;20051;-53
2024/04/03 09:45:25;;;;;;;5.47;2.42;;;;;;;9.98;100.00;69503.69;5091395;28;20055;-54
2024/04/03 09:47:58;;;;;;;9.10;2.85;;;;;;;9.98;100.00;69505.72;5091400;28;20105;-54
2024/04/03 09:50:28;;;;;;;;;;;;;;;10.00;100.00;69507.47;5091829;28;20050;-53
2024/04/03 09:52:55;;;;;;;5.15;2.38;;;;;;;10.05;100.00;69510.66;5091127;28;19924;-52
2024/04/03 09:55:26;;;;;;;7.10;2.70;;;;;;;10.09;100.00;69512.72;5090895;28;20086;-53
2024/04/03 09:57:59;;;;;;;6.03;2.47;;;;;;;10.16;100.00;69523.53;5091285;28;20048;-53
2024/04/03 10:00:27;;;;;;;7.00;2.55;;;;;;;10.21;100.00;69531.38;5091261;28;20044;-53
2024/04/03 10:02:55;;;;;;;8.32;3.30;;;;;;;10.27;100.00;69538.97;5091210;28;20040;-53
2024/04/03 10:05:34;;;;;;;7.72;2.10;;;;;;;10.42;100.00;69552.72;5090728;28;20044;-50
2024/04/03 10:08:08;;;;;;;5.97;2.40;;;;;;;10.44;100.00;69560.25;5086931;28;20075;-53
2024/04/03 10:10:36;;;;;;;7.63;2.45;;;;;;;10.48;100.00;69557.09;5088037;28;20380;-53
2024/04/03 10:13:03;;;;;;;5.63;2.60;;;;;;;10.55;100.00;69570.50;5088088;28;20473;-51
2024/04/03 10:15:31;;;;;;;6.25;2.33;;;;;;;10.67;100.00;69581.28;5090673;28;20409;-51
2024/04/03 10:18:03;;;;;;;3.97;2.20;;;;;;;10.65;100.00;69578.97;5087852;28;20055;-53
2024/04/03 10:20:36;;;;;;;5.35;2.20;;;;;;;10.71;100.00;69582.78;5089112;28;20047;-54
2024/04/03 10:23:04;;;;;;;7.07;2.60;;;;;;;10.74;100.00;69588.88;5088563;28;20048;-54
2024/04/03 10:25:31;;;;;;;5.88;2.70;;;;;;;10.83;100.00;69599.97;5087546;28;20072;-54
2024/04/03 10:27:57;;;;;;;5.53;2.15;;;;;;;10.90;100.00;69602.34;5090014;28;20048;-53
2024/04/03 10:30:26;;;;;;;7.47;3.70;;;;;;;11.01;100.00;69616.63;5090430;28;20055;-53
2024/04/03 10:32:53;;;;;;;7.32;2.40;;;;;;;11.15;100.00;69635.59;5090578;28;20039;-54
2024/04/03 10:35:20;;;;;;;5.10;2.10;;;;;;;11.23;100.00;69644.91;5073520;28;20043;-54
2024/04/03 10:37:46;;;;;;;7.63;2.10;;;;;;;11.26;100.00;69651.06;5090663;28;20036;-53
2024/04/03 10:40:13;;;;;;;5.45;2.17;;;;;;;11.31;100.00;69653.69;5071338;28;20087;-55
2024/04/03 10:42:39;;;;;;;5.63;2.53;;;;;;;11.41;100.00;69662.16;5087735;28;20075;-54
2024/04/03 10:45:08;;;;;;;5.90;2.10;;;;;;;11.47;100.00;69671.78;5090115;28;20048;-54
2024/04/03 10:47:36;;;;;;;5.90;2.20;;;;;;;11.50;100.00;69672.69;5087089;28;20048;-53
2024/04/03 10:50:03;;;;;;;6.82;2.15;;;;;;;11.48;100.00;69670.94;5087265;28;20055;-55
2024/04/03 10:52:29;;;;;;;4.10;1.75;;;;;;;11.64;100.00;69691.66;5086505;28;20048;-54
2024/04/03 10:54:57;;;;;;;5.75;2.50;;;;;;;11.73;100.00;69695.78;5089222;28;20489;-55
2024/04/03 10:57:23;;;;;;;5.50;2.25;;;;;;;11.78;100.00;69704.22;5090211;28;20052;-54
2024/04/03 10:59:50;;;;;;;4.05;2.00;;;;;;;11.86;100.00;69718.78;5089892;28;20036;-54
2024/04/03 11:02:16;;;;;;;3.72;2.13;;;;;;;11.93;100.00;69726.97;5087390;28;20044;-53
2024/04/03 11:04:46;;;;;;;5.63;2.30;;;;;;;12.03;100.00;69732.88;5070485;28;20052;-54
2024/04/03 11:07:14;;;;;;;5.70;2.07;;;;;;;12.03;100.00;69732.28;5069274;28;20044;-54
2024/04/03 11:09:42;;;;;;;4.50;1.85;;;;;;;12.12;100.00;69743.38;5087024;28;20044;-55
2024/04/03 11:12:11;;;;;;;4.30;2.03;;;;;;;12.15;100.00;69744.28;5090319;28;20502;-55
2024/04/03 11:14:38;;;;;;;5.32;1.90;;;;;;;12.04;100.00;69734.03;5090427;28;20036;-54
2024/04/03 11:17:07;;;;;;;4.70;1.73;;;;;;;12.06;100.00;69736.38;5088679;28;20509;-55
2024/04/03 11:19:35;;;;;;;4.35;2.00;;;;;;;12.12;100.00;69745.41;5070139;28;20101;-55
2024/04/03 11:22:03;;;;;;;4.82;2.10;;;;;;;12.10;100.00;69741.03;5069132;28;20598;-55
2024/04/03 11:24:32;;;;;;;3.80;1.88;;;;;;;12.09;100.00;69742.50;5086654;28;20048;-52
2024/04/03 11:26:58;;;;;;;4.25;2.03;;;;;;;12.17;100.00;69751.25;5086905;28;20581;-54
2024/04/03 11:29:27;;;;;;;4.85;2.00;;;;;;;12.04;100.00;69730.81;5087962;28;20416;-54
2024/04/03 11:31:54;;;;;;;3.95;2.25;;;;;;;12.01;100.00;69733.13;5090364;28;20036;-55
2024/04/03 11:34:21;;;;;;;4.65;2.00;;;;;;;12.10;100.00;69741.03;5087834;28;20036;-55